New Matamoras, Ohio
Current Conditions -  °F | °C
As of 5:53 PM on Tuesday 21 Oct 2014 (Local Time) from KPKB Reporting Station
Light Rain Light Rain  
Wind Chill: 45°   Ceiling: 2700
Heat Index: 49°   Visibility: 7mi
Dew Point: 47°   Wind: 8mph
Humidity: 93%   Direction: 320°NW
Pressure: 30.03"   Gusts: NA
Location:  39.52°N, 81.07°W
Report Text: KPKB 212153Z 32007KT 7SM -RA SCT012 BKN027 OVC045 09/08 A3003 RMK AO2 SLP170 P0006 T00940083
Loading
Personal Weather Stations






























Interactive Weather Map New forecast layout! Learn more

10-Day Weather Forecast

Advertisements
Track Severe Weather on mobile